// World Multilingual Website with PHP & AJAX - Αναφορές Αεροδρομίων

Αναφορές Αεροδρομίων

 

KSJC - San Jose, California, USA
Distance from station: ΒΑ 14km
Ενημερώθηκε: 22/01/2020 00:53
Συννεφιά
Συννεφιά
 Ανεμος από ΝΝΔ
Ανεμος: ΝΝΔ 19 km/h
Θερμοκρασία: 14°C
Σημείο Δρόσου: 8°C
Υγρασία: 67%
Βαρόμετρο: 1020 hPa
Clouds: Συννεφιά
Visibility: 16 km
Cloud details: Few Clouds 213 m
Σχεδόν νεφελώδης 1463 m
Συννεφιά 3048 m
2020/01/21 22:53 KSJC 212253Z 21010KT 10SM FEW007 BKN048 OVC100 14/08 A3012 RMK AO2 SLP197 T01390083
KNUQ - Moffett Nas/Mtn, California, USA
Distance from station: Β 14km
Ενημερώθηκε: 21/11/2019 18:56
NOT Current

 
Βαρόμετρο: 1011.2 hPa
2019/11/21 16:56 KNUQ 211656Z AUTO A2986 RMK AO2 SLP116 PWINO $
 
KPAO - Palo Alto, California, USA
Distance from station: ΒΒΔ 23km
Ενημερώθηκε: 22/01/2020 01:47
Nearby showers, Συννεφιά
Nearby showers, Συννεφιά
 Ανεμος από ΝΝΑ
Ανεμος: ΝΝΑ 17 km/h
Θερμοκρασία: 13°C
Σημείο Δρόσου: 9°C
Υγρασία: 77%
Βαρόμετρο: 1020 hPa
Περίληψη: Nearby Showers
Clouds: Συννεφιά
Visibility: 16 km
Cloud details: Σχεδόν νεφελώδης 914 m
Συννεφιά 1372 m
2020/01/21 23:47 KPAO 212347Z 15009KT 10SM VCSH BKN030 OVC045 13/09 A3012
KRHV - San Jose/Reid, California, USA
Distance from station: ΑΒΑ 19km
Ενημερώθηκε: 22/01/2020 00:51
Συννεφιά
Συννεφιά
 Ανεμος από ΝΝΑ
Ανεμος: ΝΝΑ 22 km/h
Θερμοκρασία: 14°C
Σημείο Δρόσου: 8°C
Υγρασία: 67%
Βαρόμετρο: 1020 hPa
Clouds: Συννεφιά
Visibility: 16 km
Cloud details: Σχεδόν νεφελώδης 1219 m
Συννεφιά 2743 m
2020/01/21 22:51 KRHV 212251Z 15012KT 10SM BKN040 OVC090 14/08 A3012
 
KOAK - Oakland, California, USA
Distance from station: ΒΒΔ 50km
Ενημερώθηκε: 22/01/2020 00:53
Ασθενής βροχή, Συννεφιά
Ασθενής βροχή, Συννεφιά
 Ανεμος από ΝΝΑ
Ανεμος: ΝΝΑ 20 km/h
Θερμοκρασία: 13°C
Σημείο Δρόσου: 11°C
Υγρασία: 88%
Βαρόμετρο: 1019.3 hPa
Περίληψη: Ασθενής βροχή
Clouds: Συννεφιά
Visibility: 13 km
Cloud details: Συννεφιά 701 m
2020/01/21 22:53 KOAK 212253Z 15011KT 8SM -RA OVC023 13/11 A3010 RMK AO2 RAB12 SLP194 P0000 T01330106
KSQL - San Carlos Airpo, California, USA
Distance from station: ΒΔ 34km
Ενημερώθηκε: 22/01/2020 00:47
Σχεδόν νεφελώδης
Σχεδόν νεφελώδης
 Ανεμος από ΝΑ
Ανεμος: ΝΑ 22 km/h
Θερμοκρασία: 14°C
Σημείο Δρόσου: 10°C
Υγρασία: 77%
Βαρόμετρο: 1019.3 hPa
Clouds: Σχεδόν νεφελώδης
Visibility: 16 km
Cloud details: Σχεδόν νεφελώδης 701 m
2020/01/21 22:47 KSQL 212247Z 14012KT 10SM BKN023 14/10 A3010
 
KSFO - San Francisco, California, USA
Distance from station: ΒΔ 49km
Ενημερώθηκε: 22/01/2020 00:56
Haze, Συννεφιά
Haze, Συννεφιά
 Ανεμος από ΝΝΑ
Ανεμος: ΝΝΑ 22 km/h, Ριπή: 37 km/h
Θερμοκρασία: 13°C
Σημείο Δρόσου: 10°C
Υγρασία: 82%
Βαρόμετρο: 1019 hPa
Περίληψη: Haze
Clouds: Συννεφιά
Visibility: 8 km
Cloud details: Few Clouds 152 m
Συννεφιά 640 m
2020/01/21 22:56 KSFO 212256Z 15012G20KT 5SM HZ FEW005 OVC021 13/10 A3009 RMK AO2 SLP190 T01330100
KE16 - San Martin, California, USA
Distance from station: ΑΝΑ 43km
Ενημερώθηκε: 14/11/2019 11:35
NOT Current
Συννεφιά
Συννεφιά
 Ανεμος από ΝΑ
Ανεμος: ΝΑ 11 km/h
Θερμοκρασία: 12°C
Σημείο Δρόσου: 10°C
Υγρασία: 88%
Βαρόμετρο: 1017.6 hPa
Clouds: Συννεφιά
Visibility: 16 km
Cloud details: Συννεφιά 427 m
2019/11/14 09:35 KE16 140935Z AUTO 13006KT 10SM OVC014 12/10 A3005 RMK AO2
 
KWVI - Watsonville, California, USA
Distance from station: ΝΝΑ 44km
Ενημερώθηκε: 22/01/2020 00:53
Συννεφιά
Συννεφιά
 Ανεμος από calm
Ανεμος: Απνοια
Θερμοκρασία: 14°C
Σημείο Δρόσου: 9°C
Υγρασία: 72%
Βαρόμετρο: 1020.7 hPa
Clouds: Συννεφιά
Visibility: 16 km
Cloud details: Συννεφιά 671 m
2020/01/21 22:53 KWVI 212253Z AUTO 00000KT 10SM OVC022 14/09 A3014 RMK AO2 RAB16E26 SLP207 P0000 T01390094
KHAF - Half Moon Bay, California, USA
Distance from station: ΔΒΔ 50km
Ενημερώθηκε: 22/01/2020 01:40
Ασθενής βροχή, Συννεφιά
Ασθενής βροχή, Συννεφιά
 Ανεμος από Ν
Ανεμος: Ν 24 km/h, Ριπή: 37 km/h
Θερμοκρασία: 12°C
Σημείο Δρόσου: 10°C
Υγρασία: 88%
Βαρόμετρο: 1020 hPa
Περίληψη: Ασθενής βροχή
Clouds: Συννεφιά
Visibility: 2 km
Cloud details: Συννεφιά 305 m
2020/01/21 23:40 KHAF 212340Z AUTO 17013G20KT 1SM -RA OVC010 12/10 A3012 RMK AO2
 
KHWD - Hayward, California, USA
Distance from station: Β 44km
Ενημερώθηκε: 22/01/2020 00:54
Ασθενής βροχή, Συννεφιά
Ασθενής βροχή, Συννεφιά
 Ανεμος από Ν
Ανεμος: Ν 15 km/h
Θερμοκρασία: 13°C
Σημείο Δρόσου: 9°C
Υγρασία: 77%
Βαρόμετρο: 1019.3 hPa
Περίληψη: Ασθενής βροχή
Clouds: Συννεφιά
Visibility: 10 km
Cloud details: Συννεφιά 792 m
2020/01/21 22:54 KHWD 212254Z 17008KT 6SM -RA OVC026 13/09 A3010 RMK AO2 RAB01E12B45 SLP204 P0000 T01330089
KLVK - Livermore, California, USA
Distance from station: ΒΒΑ 51km
Ενημερώθηκε: 22/01/2020 00:53
Συννεφιά
Συννεφιά
 Ανεμος από ΝΝΔ
Ανεμος: ΝΝΔ 13 km/h
Θερμοκρασία: 14°C
Σημείο Δρόσου: 8°C
Υγρασία: 67%
Βαρόμετρο: 1019.3 hPa
Clouds: Συννεφιά
Visibility: 16 km
Cloud details: Συννεφιά 1981 m
2020/01/21 22:53 KLVK 212253Z 20007KT 10SM OVC065 14/08 A3010 RMK AO2 SLP190 T01440083